Time;durP1;ratioP1;P1;durP2;ratioP2;P2;SDS_P1;SDS_P2;PMS_P1;PMS_P2;Temp;Humidity;BMP_temperature;BMP_pressure;BME280_temperature;BME280_humidity;BME280_pressure;Samples;Min_cycle;Max_cycle;Signal;HPM_P1;HPM_P2
2022/04/25 00:00:11;;;;;;;25.50;14.45;;;;;;;7.48;70.28;95914.44;1671351;85;27459;-75
2022/04/25 00:02:40;;;;;;;23.02;13.72;;;;;;;7.33;70.14;95914.02;1671320;85;25667;-75
2022/04/25 00:05:07;;;;;;;20.35;12.55;;;;;;;7.21;70.39;95913.97;1671576;85;25709;-74
2022/04/25 00:07:34;;;;;;;28.90;16.25;;;;;;;7.18;70.50;95902.86;1671506;85;25873;-73
2022/04/25 00:10:01;;;;;;;23.77;13.95;;;;;;;7.16;70.50;95900.91;1688667;84;25758;-75
2022/04/25 00:12:28;;;;;;;23.22;12.82;;;;;;;7.09;70.50;95900.20;1695525;84;27641;-75
2022/04/25 00:14:54;;;;;;;21.77;12.13;;;;;;;7.04;70.65;95906.75;1695443;83;25768;-74
2022/04/25 00:17:21;;;;;;;19.23;12.03;;;;;;;7.02;70.69;95894.89;1695654;84;25722;-74
2022/04/25 00:19:48;;;;;;;22.40;12.07;;;;;;;6.99;70.57;95896.71;1695372;83;25745;-73
2022/04/25 00:22:15;;;;;;;21.55;13.35;;;;;;;6.88;70.53;95902.83;1695433;83;26036;-74
2022/04/25 00:24:44;;;;;;;21.70;13.43;;;;;;;6.74;70.76;95900.83;1695429;83;27386;-75
2022/04/25 00:27:11;;;;;;;24.07;12.98;;;;;;;6.71;70.99;95901.27;1695409;84;25682;-73
2022/04/25 00:29:37;;;;;;;26.50;13.13;;;;;;;6.73;71.00;95893.00;1695432;84;26237;-74
2022/04/25 00:32:06;;;;;;;23.52;12.58;;;;;;;6.70;70.86;95895.59;1695453;83;25791;-75
2022/04/25 00:34:33;;;;;;;21.77;11.70;;;;;;;6.62;70.87;95906.63;1695444;84;25732;-75
2022/04/25 00:36:59;;;;;;;19.37;12.28;;;;;;;6.50;70.87;95898.50;1695604;83;27546;-75
2022/04/25 00:39:27;;;;;;;17.60;10.15;;;;;;;6.44;71.04;95898.03;1695443;84;25738;-74
2022/04/25 00:41:54;;;;;;;19.07;10.72;;;;;;;6.43;71.04;95903.62;1695461;84;25791;-73
2022/04/25 00:44:20;;;;;;;17.60;10.10;;;;;;;6.43;71.19;95900.94;1665822;84;25793;-75
2022/04/25 00:46:49;;;;;;;19.70;10.45;;;;;;;6.42;71.15;95908.67;1695369;84;25769;-73
2022/04/25 00:49:15;;;;;;;18.25;10.00;;;;;;;6.40;71.02;95900.06;1695508;83;28220;-75
2022/04/25 00:51:42;;;;;;;16.25;9.85;;;;;;;6.38;70.98;95899.46;1695467;84;25819;-75
2022/04/25 00:54:09;;;;;;;19.17;10.28;;;;;;;6.35;70.98;95903.91;1695485;83;25718;-74
2022/04/25 00:56:36;;;;;;;20.50;11.00;;;;;;;6.31;70.96;95902.70;1695401;83;25781;-75
2022/04/25 00:59:03;;;;;;;16.00;10.18;;;;;;;6.27;70.94;95912.25;1695335;83;26068;-74
2022/04/25 01:01:31;;;;;;;19.40;9.95;;;;;;;6.23;70.94;95920.42;1695043;84;28393;-75
2022/04/25 01:03:58;;;;;;;22.15;12.30;;;;;;;6.16;70.85;95916.98;1701359;82;25912;-75
2022/04/25 01:06:25;;;;;;;22.22;12.73;;;;;;;6.05;70.88;95920.66;1694421;83;25716;-75
2022/04/25 01:08:51;;;;;;;17.55;9.85;;;;;;;6.01;71.05;95921.34;1723132;82;26575;-73
2022/04/25 01:11:18;;;;;;;16.35;9.60;;;;;;;5.98;71.09;95919.91;1711995;83;25964;-75
2022/04/25 01:13:45;;;;;;;16.90;9.28;;;;;;;5.97;71.03;95918.78;1712191;83;26848;-74
2022/04/25 01:16:12;;;;;;;15.50;9.80;;;;;;;5.93;71.00;95919.73;1712112;83;25731;-75
2022/04/25 01:18:38;;;;;;;15.05;8.85;;;;;;;5.89;71.06;95914.53;1712246;83;25279;-74
2022/04/25 01:21:09;;;;;;;13.15;7.47;;;;;;;5.87;71.13;95915.23;1712303;83;25727;-75
2022/04/25 01:29:09;;;;;;;17.62;8.85;;;;;;;5.77;71.08;95910.37;1712152;83;25707;-73
2022/04/25 01:31:37;;;;;;;13.30;7.70;;;;;;;5.66;71.22;95911.59;1712294;83;25750;-74
2022/04/25 01:34:04;;;;;;;14.38;7.25;;;;;;;5.62;71.18;95911.70;1712169;83;25876;-75
2022/04/25 01:36:31;;;;;;;14.10;7.60;;;;;;;5.54;71.15;95907.97;1711977;83;25743;-73
2022/04/25 01:38:58;;;;;;;13.48;7.47;;;;;;;5.46;71.08;95896.98;1712082;83;27427;-74
2022/04/25 01:41:25;;;;;;;15.08;7.75;;;;;;;5.38;71.06;95895.39;1712061;83;25287;-75
2022/04/25 01:43:51;;;;;;;14.40;9.18;;;;;;;5.33;71.08;95897.06;1712203;83;25743;-73
2022/04/25 01:46:18;;;;;;;12.98;8.83;;;;;;;5.22;71.22;95895.07;1712165;83;25896;-74
2022/04/25 01:48:44;;;;;;;10.65;6.95;;;;;;;5.19;71.31;95903.03;1712217;83;25695;-74
2022/04/25 01:51:11;;;;;;;14.43;8.10;;;;;;;5.11;71.30;95909.13;1711875;83;27517;-74
2022/04/25 01:53:38;;;;;;;13.65;8.20;;;;;;;5.07;71.50;95910.88;1712133;83;25679;-75
2022/04/25 01:56:05;;;;;;;12.75;7.03;;;;;;;5.07;71.59;95912.77;1712131;83;25693;-75
2022/04/25 01:58:31;;;;;;;9.98;6.15;;;;;;;5.05;71.57;95919.66;1712163;83;26468;-75
2022/04/25 02:00:58;;;;;;;12.13;6.47;;;;;;;5.05;71.66;95919.66;1712239;83;25407;-75
2022/04/25 02:03:24;;;;;;;9.80;6.37;;;;;;;5.04;71.69;95918.02;1712075;83;27502;-74
2022/04/25 02:05:52;;;;;;;12.03;6.92;;;;;;;5.03;71.75;95911.53;1712047;83;25716;-74
2022/04/25 02:08:19;;;;;;;12.75;8.85;;;;;;;5.01;71.82;95916.27;1712142;83;25249;-74
2022/04/25 02:11:19;;;;;;;12.65;8.03;;;;;;;4.97;71.93;95923.06;1711851;83;25825;-75
2022/04/25 02:13:15;;;;;;;12.33;7.92;;;;;;;4.96;72.12;95929.45;1709512;83;25950;-73
2022/04/25 02:15:41;;;;;;;14.10;8.68;;;;;;;4.99;72.25;95934.38;1712154;83;27575;-74
2022/04/25 02:18:08;;;;;;;15.15;9.35;;;;;;;4.98;72.25;95932.73;1712033;83;25692;-74
2022/04/25 02:20:35;;;;;;;16.90;9.35;;;;;;;4.97;72.19;95924.41;1712048;83;25798;-73
2022/04/25 02:23:01;;;;;;;14.30;9.08;;;;;;;4.95;72.20;95919.27;1712233;83;26425;-75
2022/04/25 02:25:28;;;;;;;16.32;8.60;;;;;;;4.90;72.15;95923.63;1712109;83;25704;-75
2022/04/25 02:27:54;;;;;;;15.85;9.40;;;;;;;4.77;72.26;95926.34;1712196;83;27639;-74
2022/04/25 02:30:21;;;;;;;13.68;7.95;;;;;;;4.73;72.47;95925.11;1712198;83;25740;-75
2022/04/25 02:32:47;;;;;;;12.98;7.55;;;;;;;4.75;72.64;95928.41;1712228;82;25692;-75
2022/04/25 02:35:14;;;;;;;18.32;7.95;;;;;;;4.76;72.60;95925.52;1682862;85;25779;-74
2022/04/25 02:37:40;;;;;;;14.43;9.43;;;;;;;4.80;72.61;95925.93;1683027;85;25690;-76
2022/04/25 02:40:09;;;;;;;17.12;9.58;;;;;;;4.80;72.65;95926.75;1682883;85;27459;-74
2022/04/25 02:42:36;;;;;;;12.88;7.72;;;;;;;4.83;72.73;95924.18;1682686;85;25748;-75
2022/04/25 02:45:03;;;;;;;12.85;8.48;;;;;;;4.80;72.78;95923.25;1682950;85;25795;-73
2022/04/25 02:47:30;;;;;;;18.75;11.85;;;;;;;4.77;72.85;95931.17;1682559;85;25756;-74
2022/04/25 02:49:56;;;;;;;17.25;10.43;;;;;;;4.70;72.95;95925.05;1675218;85;25776;-74
2022/04/25 02:52:23;;;;;;;18.52;9.45;;;;;;;4.63;73.03;95927.72;1694719;84;27642;-74
2022/04/25 02:54:49;;;;;;;21.45;9.88;;;;;;;4.65;73.10;95931.52;1694721;84;25683;-73
2022/04/25 02:57:16;;;;;;;14.40;8.48;;;;;;;4.67;73.12;95932.14;1694910;84;25679;-74
2022/04/25 02:59:42;;;;;;;17.30;6.97;;;;;;;4.66;73.10;95933.16;1694799;84;25760;-73
2022/04/25 03:02:09;;;;;;;10.78;6.40;;;;;;;4.68;73.06;95937.80;1694697;84;25806;-74
2022/04/25 03:04:36;;;;;;;12.68;6.53;;;;;;;4.64;73.01;95938.72;1694785;84;27384;-74
2022/04/25 03:07:03;;;;;;;11.30;6.17;;;;;;;4.63;72.99;95934.91;1694713;84;25694;-74
2022/04/25 03:09:29;;;;;;;9.73;5.55;;;;;;;4.61;73.02;95939.64;1693180;84;25774;-73
2022/04/25 03:11:57;;;;;;;12.60;5.80;;;;;;;4.60;73.00;95933.99;1722443;83;25843;-73
2022/04/25 03:14:27;;;;;;;8.58;5.97;;;;;;;4.52;72.95;95936.39;1718659;83;25739;-74
2022/04/25 03:16:54;;;;;;;10.90;7.95;;;;;;;4.44;73.04;95930.45;1686490;85;27471;-75
2022/04/25 03:19:20;;;;;;;10.80;6.58;;;;;;;4.36;73.25;95932.81;1718679;83;25655;-74
2022/04/25 03:21:47;;;;;;;10.65;6.30;;;;;;;4.35;73.21;95933.84;1686299;85;25705;-74
2022/04/25 03:24:13;;;;;;;9.83;7.08;;;;;;;4.35;73.27;95928.49;1718637;83;25742;-73
2022/04/25 03:26:40;;;;;;;13.10;6.58;;;;;;;4.32;73.20;95929.76;1686550;83;25935;-74
2022/04/25 03:29:06;;;;;;;9.23;6.47;;;;;;;4.31;73.35;95926.77;1718643;83;28082;-74
2022/04/25 03:31:33;;;;;;;10.15;6.30;;;;;;;4.31;73.33;95928.63;1718670;83;25727;-73
2022/04/25 03:34:00;;;;;;;12.10;6.70;;;;;;;4.32;73.37;95928.94;1718627;82;25742;-73
2022/04/25 03:36:26;;;;;;;11.53;6.53;;;;;;;4.34;73.46;95931.71;1686295;83;25724;-74
2022/04/25 03:38:53;;;;;;;12.05;6.20;;;;;;;4.38;73.36;95933.42;1718868;82;25241;-74
2022/04/25 03:41:22;;;;;;;10.48;5.87;;;;;;;4.37;73.21;95929.11;1686139;85;27523;-74
2022/04/25 03:43:49;;;;;;;13.03;6.50;;;;;;;4.35;73.16;95935.17;1645346;86;25797;-74
2022/04/25 03:46:15;;;;;;;13.55;7.12;;;;;;;4.33;73.20;95938.08;1652552;85;25853;-75
2022/04/25 03:48:44;;;;;;;11.68;6.80;;;;;;;4.35;73.37;95941.34;1652551;85;25712;-75
2022/04/25 03:51:10;;;;;;;11.48;7.35;;;;;;;4.36;73.42;95946.17;1652526;86;26073;-73
2022/04/25 03:53:38;;;;;;;12.55;6.97;;;;;;;4.32;73.42;95954.31;1652617;86;27044;-74
2022/04/25 03:58:52;;;;;;;11.15;6.55;;;;;;;4.23;73.42;95956.35;1652469;85;25820;-75
2022/04/25 04:01:18;;;;;;;11.18;5.97;;;;;;;4.21;73.54;95956.28;1652444;86;26500;-74
2022/04/25 04:03:45;;;;;;;11.30;6.72;;;;;;;4.19;73.67;95958.33;1652506;86;26082;-73
2022/04/25 04:06:12;;;;;;;11.10;6.28;;;;;;;4.20;73.84;95955.45;1652619;86;27484;-73
2022/04/25 04:08:39;;;;;;;14.68;6.87;;;;;;;4.22;74.00;95952.58;1652408;86;26174;-74
2022/04/25 04:11:06;;;;;;;12.93;6.92;;;;;;;4.25;74.14;95960.98;1652488;85;25797;-72
2022/04/25 04:13:33;;;;;;;13.80;7.97;;;;;;;4.30;74.25;95959.86;1652339;85;25986;-73
2022/04/25 04:15:59;;;;;;;14.40;8.28;;;;;;;4.36;74.32;95959.52;1652657;85;25719;-74
2022/04/25 04:18:26;;;;;;;23.50;10.60;;;;;;;4.41;74.39;95961.08;1652527;86;27471;-73
2022/04/25 04:20:52;;;;;;;19.82;9.33;;;;;;;4.48;74.52;95963.72;1652511;85;25735;-73
2022/04/25 04:23:19;;;;;;;21.45;9.45;;;;;;;4.54;74.63;95965.58;1652497;86;26636;-73
2022/04/25 04:25:45;;;;;;;18.00;8.90;;;;;;;4.58;74.69;95964.14;1652642;85;26724;-74
2022/04/25 04:28:12;;;;;;;17.32;8.53;;;;;;;4.64;74.78;95962.77;1652463;86;26916;-73
2022/04/25 04:30:39;;;;;;;21.40;8.75;;;;;;;4.73;74.75;95963.88;1652448;86;28376;-74
2022/04/25 04:33:06;;;;;;;15.78;8.55;;;;;;;4.78;74.82;95969.42;1652471;86;25712;-73
2022/04/25 04:38:17;;;;;;;22.85;10.72;;;;;;;4.90;74.87;95971.75;1652629;86;25691;-73
2022/04/25 04:40:44;;;;;;;15.10;8.80;;;;;;;4.98;74.84;95975.00;1652642;85;25491;-74
2022/04/25 04:43:11;;;;;;;16.00;8.63;;;;;;;5.04;74.92;95980.05;1652201;86;27454;-75
2022/04/25 04:45:37;;;;;;;18.73;9.60;;;;;;;;;;1652418;86;25755;-74
2022/04/25 04:48:04;;;;;;;23.27;12.90;;;;;;;5.12;75.00;95987.82;1652641;86;25867;-74
2022/04/25 04:50:31;;;;;;;27.55;17.82;;;;;;;5.17;75.03;95981.33;1652604;86;25749;-75
2022/04/25 04:53:00;;;;;;;22.95;15.50;;;;;;;5.23;75.07;95983.66;1668049;83;25843;-74
2022/04/25 04:55:27;;;;;;;28.07;13.10;;;;;;;5.30;75.06;95979.94;1718500;83;27362;-75
2022/04/25 04:57:58;;;;;;;21.60;12.68;;;;;;;5.36;75.05;95987.09;1718496;82;25468;-73
2022/04/25 05:00:24;;;;;;;22.85;13.93;;;;;;;5.41;75.03;95981.94;1686261;83;25769;-74
2022/04/25 05:02:51;;;;;;;22.98;15.05;;;;;;;5.48;75.05;95979.73;1686224;85;26589;-74
2022/04/25 05:05:18;;;;;;;25.43;15.83;;;;;;;5.55;75.16;95977.34;1661461;86;25977;-73
2022/04/25 05:07:45;;;;;;;28.90;16.65;;;;;;;5.62;75.20;95986.14;1718602;83;28146;-74
2022/04/25 05:10:12;;;;;;;22.90;15.13;;;;;;;5.70;75.21;95982.38;1687302;84;25765;-73
2022/04/25 05:12:56;;;;;;;24.47;14.33;;;;;;;5.77;75.18;95984.52;1693683;84;25784;-73
2022/04/25 05:15:23;;;;;;;21.17;13.95;;;;;;;5.83;75.19;95978.28;1674027;85;25767;-75
2022/04/25 05:17:53;;;;;;;23.22;13.90;;;;;;;5.92;75.26;95991.73;1674055;85;25722;-73
2022/04/25 05:20:23;;;;;;;24.30;13.25;;;;;;;6.00;75.35;95995.52;1674086;85;28199;-75
2022/04/25 05:22:51;;;;;;;18.50;12.90;;;;;;;6.08;75.43;96001.94;1693911;84;25810;-75
2022/04/25 05:25:27;;;;;;;24.92;12.37;;;;;;;6.14;75.54;96002.94;1693752;84;25729;-74
2022/04/25 05:27:55;;;;;;;16.95;10.13;;;;;;;6.21;75.59;95992.16;1666018;84;25751;-75
2022/04/25 05:30:24;;;;;;;16.67;11.57;;;;;;;6.30;75.57;95991.66;1694077;84;25738;-73
2022/04/25 05:32:57;;;;;;;20.17;11.88;;;;;;;6.39;75.52;95994.91;1674015;85;27375;-74
2022/04/25 05:35:33;;;;;;;17.65;11.10;;;;;;;6.48;75.53;95998.95;1674052;85;25743;-74
2022/04/25 05:38:01;;;;;;;25.35;11.83;;;;;;;6.55;75.64;96005.05;1693983;84;25725;-75
2022/04/25 05:40:28;;;;;;;20.77;14.38;;;;;;;6.61;75.71;96008.73;1693939;84;25847;-74
2022/04/25 05:42:57;;;;;;;23.18;14.58;;;;;;;6.61;75.51;96009.55;1693981;84;25790;-74
2022/04/25 05:45:25;;;;;;;24.60;14.58;;;;;;;6.67;75.36;96004.63;1694120;84;27452;-75
2022/04/25 05:47:57;;;;;;;19.30;14.78;;;;;;;6.75;75.22;96008.91;1693909;84;25706;-74
2022/04/25 05:53:14;;;;;;;26.95;14.58;;;;;;;6.94;75.12;96011.08;1693867;84;26339;-75
2022/04/25 05:55:44;;;;;;;23.85;14.25;;;;;;;7.01;75.06;96015.33;1693634;84;25732;-74
2022/04/25 05:58:11;;;;;;;22.75;13.80;;;;;;;7.07;74.94;96014.45;1694065;84;27439;-74
2022/04/25 06:00:37;;;;;;;26.30;13.90;;;;;;;7.14;74.90;96017.05;1693988;84;25885;-74
2022/04/25 06:03:04;;;;;;;29.02;15.55;;;;;;;7.18;74.87;96016.91;1693987;84;25829;-74
2022/04/25 06:05:30;;;;;;;31.87;16.07;;;;;;;7.24;74.85;96014.69;1694070;84;25745;-73
2022/04/25 06:07:57;;;;;;;20.85;13.78;;;;;;;7.29;74.92;96020.19;1694098;84;25715;-74
2022/04/25 06:10:25;;;;;;;22.58;11.73;;;;;;;7.34;74.81;96013.63;1693941;84;27519;-75
2022/04/25 06:12:54;;;;;;;22.37;12.15;;;;;;;7.40;74.76;96015.41;1693749;84;25914;-75
2022/04/25 06:15:27;;;;;;;23.00;12.73;;;;;;;7.47;74.81;96020.19;1694244;84;25744;-74
2022/04/25 06:17:56;;;;;;;21.55;13.15;;;;;;;7.53;74.91;96017.11;1694014;84;25739;-75
2022/04/25 06:20:23;;;;;;;20.00;12.73;;;;;;;7.62;74.87;96021.11;1693940;84;25786;-74
2022/04/25 06:22:59;;;;;;;21.12;12.65;;;;;;;7.69;74.69;96015.67;1694036;84;27526;-74
2022/04/25 06:25:28;;;;;;;20.32;11.93;;;;;;;7.73;74.80;96016.87;1676663;84;25842;-75
2022/04/25 06:27:57;;;;;;;31.05;14.70;;;;;;;7.75;74.93;96015.57;1676798;85;25739;-75
2022/04/25 06:30:28;;;;;;;21.52;14.03;;;;;;;7.78;74.71;96015.64;1676729;85;26494;-75
2022/04/25 06:32:59;;;;;;;24.75;14.80;;;;;;;7.85;74.61;96013.67;1676991;85;25889;-74
2022/04/25 06:35:27;;;;;;;27.32;15.00;;;;;;;7.93;74.47;96010.69;1676811;85;27393;-75
2022/04/25 06:37:53;;;;;;;19.17;14.25;;;;;;;8.02;74.39;96006.63;1676647;85;25743;-74
2022/04/25 06:40:21;;;;;;;31.77;17.70;;;;;;;8.12;74.32;96000.16;1676761;85;25742;-75
2022/04/25 06:42:49;;;;;;;30.80;17.52;;;;;;;8.21;74.24;96001.46;1676755;85;25818;-75
2022/04/25 06:45:16;;;;;;;32.00;20.00;;;;;;;8.28;74.13;96007.57;1676727;85;25810;-75
2022/04/25 06:47:43;;;;;;;34.10;19.23;;;;;;;8.35;74.01;95996.73;1676686;85;27473;-74
2022/04/25 06:50:10;;;;;;;31.37;19.95;;;;;;;8.46;74.00;95995.11;1676809;85;25780;-74
2022/04/25 06:52:37;;;;;;;30.48;19.50;;;;;;;8.56;73.88;95998.06;1676575;85;25786;-75
2022/04/25 06:55:05;;;;;;;29.52;18.45;;;;;;;8.63;73.93;96001.45;1676774;85;25845;-75
2022/04/25 06:57:33;;;;;;;27.93;17.80;;;;;;;8.70;73.93;95997.28;1676756;85;25751;-75
2022/04/25 07:00:04;;;;;;;25.12;16.95;;;;;;;8.80;74.00;95997.02;1676797;85;27633;-75
2022/04/25 07:02:31;;;;;;;31.30;17.23;;;;;;;8.92;73.87;95999.70;1635135;87;25731;-75
2022/04/25 07:04:57;;;;;;;30.85;17.37;;;;;;;9.03;73.67;95997.01;1635632;87;25782;-76
2022/04/25 07:07:25;;;;;;;24.07;17.45;;;;;;;9.10;73.63;95996.87;1635604;87;25906;-75
2022/04/25 07:09:52;;;;;;;26.35;16.15;;;;;;;9.17;73.70;95993.54;1635388;87;25327;-74
2022/04/25 07:12:18;;;;;;;26.93;15.30;;;;;;;9.26;73.62;95989.42;1630012;87;27427;-74
2022/04/25 07:14:45;;;;;;;24.47;14.75;;;;;;;9.34;73.37;95997.64;1628658;88;25786;-76
2022/04/25 07:17:12;;;;;;;27.30;14.85;;;;;;;9.42;73.29;96001.86;1628387;86;25882;-75
2022/04/25 07:19:39;;;;;;;24.57;13.32;;;;;;;9.48;73.24;95999.55;1628129;86;25862;-74
2022/04/25 07:30:27;;;;;;;25.35;13.00;;;;;;;10.00;72.65;96001.66;1647674;85;25851;-75
2022/04/25 07:32:55;;;;;;;17.07;11.15;;;;;;;10.15;72.53;96004.59;1647609;85;25913;-74
2022/04/25 07:35:22;;;;;;;28.60;14.18;;;;;;;10.28;72.40;96002.98;1647727;85;25664;-74
2022/04/25 07:37:48;;;;;;;34.95;17.57;;;;;;;10.44;72.14;96002.72;1647802;85;27629;-75
2022/04/25 07:40:15;;;;;;;34.33;16.25;;;;;;;10.64;72.14;96001.69;1647627;85;26188;-74
2022/04/25 07:42:42;;;;;;;22.77;13.00;;;;;;;10.83;71.81;96007.67;1647307;85;25889;-75
2022/04/25 07:45:10;;;;;;;13.18;7.80;;;;;;;11.01;71.59;96005.22;1647656;85;26815;-75
2022/04/25 07:47:39;;;;;;;10.28;5.00;;;;;;;11.17;71.36;96007.91;1647518;85;25804;-74
2022/04/25 07:50:06;;;;;;;9.53;5.28;;;;;;;11.46;71.03;96001.00;1647741;85;28308;-74
2022/04/25 07:52:33;;;;;;;12.82;5.50;;;;;;;11.90;70.96;95995.88;1647542;85;25856;-74
2022/04/25 07:54:59;;;;;;;11.68;5.72;;;;;;;12.46;70.65;96003.19;1647750;85;25415;-75
2022/04/25 07:57:26;;;;;;;8.78;4.67;;;;;;;12.63;70.11;95998.48;1647445;85;26517;-74
2022/04/25 07:59:52;;;;;;;12.37;5.20;;;;;;;12.74;69.41;95998.02;1687645;84;25846;-74
2022/04/25 08:02:20;;;;;;;12.45;4.28;;;;;;;12.79;68.83;95997.26;1706688;84;27366;-76
2022/04/25 08:04:47;;;;;;;8.53;5.22;;;;;;;12.83;68.51;95994.28;1706536;84;25682;-75
2022/04/25 08:07:13;;;;;;;11.48;5.62;;;;;;;12.92;68.45;95998.17;1706736;84;25767;-74
2022/04/25 08:09:41;;;;;;;13.53;7.95;;;;;;;13.25;68.28;95999.22;1706756;84;25835;-76
2022/04/25 08:20:25;;;;;;;12.05;5.92;;;;;;;14.35;66.40;95983.63;1662964;86;25753;-76
2022/04/25 08:22:52;;;;;;;9.98;4.65;;;;;;;14.65;66.32;95982.84;1653941;86;26459;-74
2022/04/25 08:25:19;;;;;;;7.10;4.25;;;;;;;15.03;66.18;95980.12;1636889;87;25775;-76
2022/04/25 08:27:45;;;;;;;6.75;4.05;;;;;;;15.44;65.37;95979.50;1643749;87;27540;-75
2022/04/25 08:30:12;;;;;;;10.55;5.85;;;;;;;15.96;64.76;95978.22;1643734;87;25792;-76
2022/04/25 08:32:39;;;;;;;11.30;6.05;;;;;;;16.55;63.97;95974.03;1643732;87;25711;-77
2022/04/25 08:35:06;;;;;;;10.72;5.90;;;;;;;17.09;63.71;95970.91;1643792;87;25696;-76
2022/04/25 08:37:33;;;;;;;9.75;4.20;;;;;;;17.74;62.50;95975.44;1662850;86;25824;-74
2022/04/25 08:39:59;;;;;;;9.30;4.17;;;;;;;18.31;60.74;95965.66;1653918;86;28392;-76
2022/04/25 08:42:26;;;;;;;6.45;3.95;;;;;;;18.65;60.39;95968.73;1662969;86;25685;-75
2022/04/25 08:44:53;;;;;;;5.22;3.25;;;;;;;18.95;59.26;95975.64;1653830;86;25807;-76
2022/04/25 08:47:22;;;;;;;5.37;3.02;;;;;;;19.12;58.32;95966.86;1636758;87;25853;-77
2022/04/25 08:49:49;;;;;;;6.22;3.60;;;;;;;19.13;57.47;95965.75;1643701;87;25638;-76
2022/04/25 08:52:16;;;;;;;5.42;3.10;;;;;;;19.43;57.30;95966.58;1643729;87;27241;-76
2022/04/25 08:54:45;;;;;;;5.47;3.40;;;;;;;19.82;56.65;95972.12;1643678;87;25720;-75
2022/04/25 08:57:14;;;;;;;5.10;2.77;;;;;;;19.98;55.48;95974.81;1643742;87;25724;-76
2022/04/25 08:59:41;;;;;;;3.70;2.58;;;;;;;20.05;54.07;95970.54;1643595;87;25756;-75
2022/04/25 09:02:10;;;;;;;6.45;3.20;;;;;;;19.98;53.53;95970.71;1643754;87;25720;-78
2022/04/25 09:04:37;;;;;;;4.47;2.42;;;;;;;20.08;54.05;95969.94;1643661;87;27473;-77
2022/04/25 09:07:04;;;;;;;6.72;2.67;;;;;;;20.05;52.71;95973.28;1643748;87;26345;-76
2022/04/25 09:09:31;;;;;;;6.95;2.42;;;;;;;19.94;51.90;95969.69;1663241;86;25732;-77
2022/04/25 09:12:11;;;;;;;4.28;2.10;;;;;;;19.95;52.37;95971.31;1662142;84;25798;-75
2022/04/25 09:14:42;;;;;;;8.18;3.47;;;;;;;19.99;51.94;95967.67;1648004;87;25684;-77
2022/04/25 09:17:09;;;;;;;4.42;2.20;;;;;;;19.91;51.48;95971.69;1645980;87;27485;-77
2022/04/25 09:19:37;;;;;;;3.08;1.60;;;;;;;19.84;51.18;95963.05;1659556;86;25915;-76
2022/04/25 09:22:06;;;;;;;3.95;2.20;;;;;;;20.01;51.30;95968.73;1648829;87;25809;-77
2022/04/25 09:24:35;;;;;;;11.18;5.65;;;;;;;19.95;51.22;95970.76;1659777;86;25750;-74
2022/04/25 09:27:12;;;;;;;7.62;2.60;;;;;;;20.08;50.66;95968.56;1659795;86;25875;-78
2022/04/25 09:29:40;;;;;;;3.37;2.05;;;;;;;19.99;50.18;95955.91;1659819;86;27389;-74
2022/04/25 09:32:11;;;;;;;4.72;2.55;;;;;;;20.14;50.26;95974.77;1659860;86;26018;-78
2022/04/25 09:37:40;;;;;;;3.72;2.30;;;;;;;19.84;49.20;95970.71;1659726;86;25950;-74
2022/04/25 09:40:09;;;;;;;7.35;4.00;;;;;;;19.81;49.55;95967.20;1659291;86;25312;-76
2022/04/25 09:42:36;;;;;;;5.12;2.85;;;;;;;19.67;49.40;95965.87;1659823;86;28229;-77
2022/04/25 09:45:05;;;;;;;6.83;3.67;;;;;;;19.39;49.27;95971.02;1659495;86;25899;-77
2022/04/25 09:47:37;;;;;;;5.30;2.87;;;;;;;19.12;49.29;95968.22;1659702;86;26844;-77
2022/04/25 09:50:13;;;;;;;7.35;3.62;;;;;;;18.78;48.98;95973.44;1659900;86;25744;-75
2022/04/25 09:52:58;;;;;;;5.58;3.10;;;;;;;18.50;48.91;95977.94;1659843;86;25810;-76
2022/04/25 09:55:28;;;;;;;5.75;2.12;;;;;;;18.24;49.09;95981.58;1659774;86;27495;-75
2022/04/25 09:57:55;;;;;;;7.62;3.05;;;;;;;18.08;49.06;95976.09;1659556;86;25984;-75
2022/04/25 10:00:36;;;;;;;3.50;2.00;;;;;;;17.82;49.40;95981.60;1659498;86;25877;-74
2022/04/25 10:03:06;;;;;;;5.55;2.15;;;;;;;17.65;49.05;95976.60;1659702;86;25756;-75
2022/04/25 10:05:43;;;;;;;4.83;2.50;;;;;;;17.11;49.29;95979.06;1659479;86;25370;-76
2022/04/25 10:08:13;;;;;;;6.60;3.47;;;;;;;16.40;49.60;95981.52;1659019;86;28102;-76
2022/04/25 10:10:47;;;;;;;4.55;2.40;;;;;;;15.95;50.59;95989.38;1659476;86;26501;-75
2022/04/25 10:13:14;;;;;;;7.05;3.42;;;;;;;15.83;50.93;95989.70;1604009;87;25346;-74
2022/04/25 10:15:43;;;;;;;7.67;3.20;;;;;;;15.79;51.17;95987.29;1625762;86;26536;-74
2022/04/25 10:18:11;;;;;;;7.62;3.67;;;;;;;15.77;51.58;95984.03;1625564;86;25730;-75
2022/04/25 10:20:40;;;;;;;8.25;4.08;;;;;;;15.68;52.07;95982.98;1625512;86;27243;-75
2022/04/25 10:23:10;;;;;;;7.25;4.42;;;;;;;15.75;52.64;95973.97;1625750;86;25838;-75
2022/04/25 10:25:46;;;;;;;6.50;3.95;;;;;;;15.83;52.79;95976.09;1625671;88;25921;-77
2022/04/25 10:28:36;;;;;;;5.55;2.70;;;;;;;15.89;52.82;95984.52;1623150;86;25646;-76
2022/04/25 10:31:09;;;;;;;7.25;5.03;;;;;;;15.85;52.77;95982.08;1625737;86;25294;-75
2022/04/25 10:33:54;;;;;;;8.28;4.42;;;;;;;15.77;52.89;95990.83;1625558;88;27541;-75
2022/04/25 10:36:45;;;;;;;6.87;4.33;;;;;;;15.70;53.38;95991.66;1564350;91;25900;-75
2022/04/25 10:39:22;;;;;;;5.20;3.80;;;;;;;15.65;53.63;95995.77;1565670;90;25991;-75
2022/04/25 10:44:53;;;;;;;6.85;4.28;;;;;;;15.47;54.27;96008.02;1565662;91;25874;-74
2022/04/25 10:47:25;;;;;;;9.73;4.85;;;;;;;15.33;54.90;96012.42;1540328;93;27460;-75
2022/04/25 10:50:00;;;;;;;7.40;4.33;;;;;;;15.20;55.44;96025.22;1540545;93;26100;-76
2022/04/25 10:58:08;;;;;;;10.23;4.40;;;;;;;14.51;57.29;96075.42;1470762;97;25942;-74
2022/04/25 11:00:45;;;;;;;11.30;4.40;;;;;;;14.34;58.00;96070.75;1470517;97;28101;-75
2022/04/25 11:03:23;;;;;;;7.15;3.20;;;;;;;14.09;58.89;96069.31;1470543;95;25814;-76
2022/04/25 11:06:02;;;;;;;13.35;6.78;;;;;;;13.95;58.80;96070.34;1470608;95;26500;-75
2022/04/25 11:08:32;;;;;;;13.10;8.90;;;;;;;13.84;59.71;96065.41;1470770;95;25913;-76
2022/04/25 11:11:16;;;;;;;11.35;5.30;;;;;;;13.51;61.13;96053.58;1497234;93;25973;-76
2022/04/25 11:14:01;;;;;;;6.30;4.58;;;;;;;13.96;63.81;96050.27;1483165;95;27572;-75
2022/04/25 11:16:26;;;;;;;4.33;3.42;;;;;;;14.65;64.70;96058.08;1499437;95;25765;-77
2022/04/25 11:19:14;;;;;;;9.00;3.62;;;;;;;15.40;64.03;96064.60;1500137;94;25916;-75
2022/04/25 11:21:50;;;;;;;5.03;2.95;;;;;;;15.89;62.81;96083.84;1466116;97;25847;-75
2022/04/25 11:24:29;;;;;;;5.03;3.10;;;;;;;16.09;61.83;96089.20;1473015;96;25839;-77
2022/04/25 11:26:59;;;;;;;4.92;2.30;;;;;;;16.02;61.09;96090.06;1473225;97;28214;-75
2022/04/25 11:29:25;;;;;;;3.12;1.85;;;;;;;15.49;60.30;96096.40;1472947;97;25966;-78
2022/04/25 11:32:13;;;;;;;2.30;1.80;;;;;;;15.13;59.92;96103.76;1473121;97;25932;-75
2022/04/25 11:34:39;;;;;;;3.58;1.57;;;;;;;14.89;60.00;96105.91;1473119;97;26474;-76
2022/04/25 11:37:10;;;;;;;2.85;2.10;;;;;;;14.52;60.32;96102.86;1476503;96;25813;-75
2022/04/25 11:39:52;;;;;;;4.45;1.82;;;;;;;14.21;60.89;96103.81;1475517;95;27475;-75
2022/04/25 11:42:19;;;;;;;4.72;2.27;;;;;;;14.25;61.26;96111.14;1474574;95;25486;-76
2022/04/25 11:44:45;;;;;;;2.50;2.10;;;;;;;14.48;61.77;96115.35;1474686;95;25404;-75
2022/04/25 11:47:12;;;;;;;3.02;1.90;;;;;;;14.76;61.85;96120.30;1456848;95;25943;-75
2022/04/25 11:49:39;;;;;;;5.00;1.32;;;;;;;14.80;61.37;96117.05;1476528;93;25859;-76
2022/04/25 11:52:10;;;;;;;2.12;1.92;;;;;;;14.70;61.30;96125.45;1527683;92;27449;-77
2022/04/25 11:54:40;;;;;;;2.60;1.98;;;;;;;14.06;61.08;96131.16;1566515;89;25894;-76
2022/04/25 11:57:07;;;;;;;3.27;2.50;;;;;;;13.83;62.15;96128.87;1596714;89;25835;-75
2022/04/25 11:59:34;;;;;;;4.60;2.12;;;;;;;13.83;62.34;96132.94;1595906;89;25773;-75
2022/04/25 12:02:01;;;;;;;3.37;2.35;;;;;;;13.84;62.53;96132.40;1596408;89;25876;-76
2022/04/25 12:04:35;;;;;;;4.45;2.00;;;;;;;13.62;62.87;96136.61;1596469;89;28054;-76
2022/04/25 12:07:06;;;;;;;2.67;1.85;;;;;;;13.51;63.19;96133.55;1596284;89;25813;-76
2022/04/25 12:15:34;;;;;;;2.90;1.75;;;;;;;13.41;63.31;96130.74;1492080;94;26375;-76
2022/04/25 12:18:22;;;;;;;3.15;2.15;;;;;;;13.42;64.16;96131.02;1481783;96;28912;-76
2022/04/25 12:21:11;;;;;;;2.95;2.27;;;;;;;13.47;64.08;96135.95;1484599;94;25849;-75
2022/04/25 12:23:50;;;;;;;3.75;2.22;;;;;;;13.43;64.30;96140.25;1513005;94;26551;-74
2022/04/25 12:26:20;;;;;;;5.60;2.87;;;;;;;13.43;64.37;96144.86;1512894;94;44312;-76